sensor_id;sensor_type;location;lat;lon;timestamp;P1;durP1;ratioP1;P2;durP2;ratioP2
50319;SDS011;36226;53.464;9.852;2024-02-16T00:01:55;7.88;;;2.50;;
50319;SDS011;36226;53.464;9.852;2024-02-16T00:04:20;6.43;;;2.38;;
50319;SDS011;36226;53.464;9.852;2024-02-16T00:06:46;8.00;;;2.47;;
50319;SDS011;36226;53.464;9.852;2024-02-16T00:09:12;4.75;;;2.10;;
50319;SDS011;36226;53.464;9.852;2024-02-16T00:11:38;4.47;;;1.75;;
50319;SDS011;36226;53.464;9.852;2024-02-16T00:14:03;3.72;;;1.92;;
50319;SDS011;36226;53.464;9.852;2024-02-16T00:16:29;5.50;;;2.03;;
50319;SDS011;36226;53.464;9.852;2024-02-16T00:18:54;3.65;;;1.80;;
50319;SDS011;36226;53.464;9.852;2024-02-16T00:21:20;8.20;;;2.00;;
50319;SDS011;36226;53.464;9.852;2024-02-16T00:23:46;5.88;;;2.10;;
50319;SDS011;36226;53.464;9.852;2024-02-16T00:26:11;5.78;;;1.90;;
50319;SDS011;36226;53.464;9.852;2024-02-16T00:28:37;5.88;;;1.70;;
50319;SDS011;36226;53.464;9.852;2024-02-16T00:31:02;4.82;;;1.88;;
50319;SDS011;36226;53.464;9.852;2024-02-16T00:33:27;3.38;;;1.88;;
50319;SDS011;36226;53.464;9.852;2024-02-16T00:35:54;3.15;;;1.60;;
50319;SDS011;36226;53.464;9.852;2024-02-16T00:38:19;6.03;;;1.85;;
50319;SDS011;36226;53.464;9.852;2024-02-16T00:40:44;5.55;;;1.85;;
50319;SDS011;36226;53.464;9.852;2024-02-16T00:43:10;6.60;;;1.98;;
50319;SDS011;36226;53.464;9.852;2024-02-16T00:45:36;4.78;;;1.95;;
50319;SDS011;36226;53.464;9.852;2024-02-16T00:48:01;3.50;;;1.60;;
50319;SDS011;36226;53.464;9.852;2024-02-16T00:50:28;4.03;;;1.83;;
50319;SDS011;36226;53.464;9.852;2024-02-16T00:52:54;6.13;;;1.88;;
50319;SDS011;36226;53.464;9.852;2024-02-16T00:55:19;2.65;;;1.80;;
50319;SDS011;36226;53.464;9.852;2024-02-16T00:57:45;5.30;;;1.80;;
50319;SDS011;36226;53.464;9.852;2024-02-16T01:00:10;3.63;;;1.75;;
50319;SDS011;36226;53.464;9.852;2024-02-16T01:02:36;4.18;;;1.90;;
50319;SDS011;36226;53.464;9.852;2024-02-16T01:05:01;4.03;;;1.75;;
50319;SDS011;36226;53.464;9.852;2024-02-16T01:07:27;4.35;;;2.05;;
50319;SDS011;36226;53.464;9.852;2024-02-16T01:09:53;3.47;;;1.95;;
50319;SDS011;36226;53.464;9.852;2024-02-16T01:12:19;2.88;;;1.80;;
50319;SDS011;36226;53.464;9.852;2024-02-16T01:14:47;2.83;;;1.70;;
50319;SDS011;36226;53.464;9.852;2024-02-16T01:17:16;7.57;;;2.17;;
50319;SDS011;36226;53.464;9.852;2024-02-16T01:19:44;3.47;;;1.65;;
50319;SDS011;36226;53.464;9.852;2024-02-16T01:22:12;3.72;;;1.75;;
50319;SDS011;36226;53.464;9.852;2024-02-16T01:24:37;4.03;;;1.80;;
50319;SDS011;36226;53.464;9.852;2024-02-16T01:27:03;2.38;;;1.50;;
50319;SDS011;36226;53.464;9.852;2024-02-16T01:29:28;4.55;;;2.40;;
50319;SDS011;36226;53.464;9.852;2024-02-16T01:31:54;3.97;;;1.70;;
50319;SDS011;36226;53.464;9.852;2024-02-16T01:34:19;4.80;;;1.80;;
50319;SDS011;36226;53.464;9.852;2024-02-16T01:36:44;4.40;;;1.63;;
50319;SDS011;36226;53.464;9.852;2024-02-16T01:39:10;3.13;;;1.67;;
50319;SDS011;36226;53.464;9.852;2024-02-16T01:41:38;6.28;;;2.20;;
50319;SDS011;36226;53.464;9.852;2024-02-16T01:44:04;4.32;;;1.83;;
50319;SDS011;36226;53.464;9.852;2024-02-16T01:46:29;4.25;;;1.88;;
50319;SDS011;36226;53.464;9.852;2024-02-16T01:48:55;4.18;;;1.85;;
50319;SDS011;36226;53.464;9.852;2024-02-16T01:51:21;3.25;;;1.42;;
50319;SDS011;36226;53.464;9.852;2024-02-16T01:53:48;5.10;;;1.80;;
50319;SDS011;36226;53.464;9.852;2024-02-16T01:56:14;5.10;;;1.95;;
50319;SDS011;36226;53.464;9.852;2024-02-16T01:58:40;4.68;;;1.75;;
50319;SDS011;36226;53.464;9.852;2024-02-16T02:01:05;6.53;;;2.30;;
50319;SDS011;36226;53.464;9.852;2024-02-16T02:03:31;4.30;;;2.05;;
50319;SDS011;36226;53.464;9.852;2024-02-16T02:05:56;4.03;;;1.55;;
50319;SDS011;36226;53.464;9.852;2024-02-16T02:08:22;2.33;;;1.45;;
50319;SDS011;36226;53.464;9.852;2024-02-16T02:10:47;2.85;;;1.73;;
50319;SDS011;36226;53.464;9.852;2024-02-16T02:13:14;3.72;;;1.65;;
50319;SDS011;36226;53.464;9.852;2024-02-16T02:15:40;2.75;;;1.80;;
50319;SDS011;36226;53.464;9.852;2024-02-16T02:18:05;3.00;;;1.80;;
50319;SDS011;36226;53.464;9.852;2024-02-16T02:20:30;5.80;;;1.77;;
50319;SDS011;36226;53.464;9.852;2024-02-16T02:22:56;3.17;;;1.50;;
50319;SDS011;36226;53.464;9.852;2024-02-16T02:25:21;3.47;;;1.70;;
50319;SDS011;36226;53.464;9.852;2024-02-16T02:27:47;7.00;;;2.03;;
50319;SDS011;36226;53.464;9.852;2024-02-16T02:30:12;3.75;;;1.80;;
50319;SDS011;36226;53.464;9.852;2024-02-16T02:32:37;5.60;;;1.65;;
50319;SDS011;36226;53.464;9.852;2024-02-16T02:35:03;4.72;;;1.85;;
50319;SDS011;36226;53.464;9.852;2024-02-16T02:37:30;5.47;;;1.80;;
50319;SDS011;36226;53.464;9.852;2024-02-16T02:39:55;3.28;;;1.75;;
50319;SDS011;36226;53.464;9.852;2024-02-16T02:42:21;2.70;;;1.80;;
50319;SDS011;36226;53.464;9.852;2024-02-16T02:44:47;4.47;;;1.90;;
50319;SDS011;36226;53.464;9.852;2024-02-16T02:47:15;8.18;;;1.80;;
50319;SDS011;36226;53.464;9.852;2024-02-16T02:49:42;3.03;;;1.92;;
50319;SDS011;36226;53.464;9.852;2024-02-16T02:52:07;3.83;;;1.33;;
50319;SDS011;36226;53.464;9.852;2024-02-16T02:54:32;6.35;;;1.83;;
50319;SDS011;36226;53.464;9.852;2024-02-16T02:56:58;5.75;;;1.90;;
50319;SDS011;36226;53.464;9.852;2024-02-16T02:59:24;5.80;;;1.85;;
50319;SDS011;36226;53.464;9.852;2024-02-16T03:01:49;2.72;;;1.50;;
50319;SDS011;36226;53.464;9.852;2024-02-16T03:04:15;4.63;;;1.70;;
50319;SDS011;36226;53.464;9.852;2024-02-16T03:06:40;3.92;;;1.50;;
50319;SDS011;36226;53.464;9.852;2024-02-16T03:09:06;2.38;;;1.60;;
50319;SDS011;36226;53.464;9.852;2024-02-16T03:11:31;4.65;;;1.58;;
50319;SDS011;36226;53.464;9.852;2024-02-16T03:13:57;5.15;;;1.58;;
50319;SDS011;36226;53.464;9.852;2024-02-16T03:16:22;3.67;;;1.80;;
50319;SDS011;36226;53.464;9.852;2024-02-16T03:18:48;4.63;;;1.65;;
50319;SDS011;36226;53.464;9.852;2024-02-16T03:21:13;5.10;;;1.80;;
50319;SDS011;36226;53.464;9.852;2024-02-16T03:23:41;4.50;;;1.58;;
50319;SDS011;36226;53.464;9.852;2024-02-16T03:26:13;2.60;;;1.50;;
50319;SDS011;36226;53.464;9.852;2024-02-16T03:28:39;1.88;;;1.35;;
50319;SDS011;36226;53.464;9.852;2024-02-16T03:31:05;5.43;;;1.60;;
50319;SDS011;36226;53.464;9.852;2024-02-16T03:33:30;3.30;;;1.52;;
50319;SDS011;36226;53.464;9.852;2024-02-16T03:35:56;5.65;;;1.60;;
50319;SDS011;36226;53.464;9.852;2024-02-16T03:38:21;5.18;;;1.90;;
50319;SDS011;36226;53.464;9.852;2024-02-16T03:40:47;6.13;;;2.28;;
50319;SDS011;36226;53.464;9.852;2024-02-16T03:43:12;2.85;;;1.60;;
50319;SDS011;36226;53.464;9.852;2024-02-16T03:45:38;4.95;;;1.50;;
50319;SDS011;36226;53.464;9.852;2024-02-16T03:48:03;4.22;;;1.50;;
50319;SDS011;36226;53.464;9.852;2024-02-16T03:50:29;6.53;;;1.52;;
50319;SDS011;36226;53.464;9.852;2024-02-16T03:52:54;3.15;;;1.50;;
50319;SDS011;36226;53.464;9.852;2024-02-16T03:55:20;2.63;;;1.20;;
50319;SDS011;36226;53.464;9.852;2024-02-16T03:57:45;6.25;;;1.40;;
50319;SDS011;36226;53.464;9.852;2024-02-16T04:00:10;5.80;;;1.67;;
50319;SDS011;36226;53.464;9.852;2024-02-16T04:02:37;4.90;;;1.60;;
50319;SDS011;36226;53.464;9.852;2024-02-16T04:05:03;3.80;;;1.70;;
50319;SDS011;36226;53.464;9.852;2024-02-16T04:07:29;3.63;;;1.40;;
50319;SDS011;36226;53.464;9.852;2024-02-16T04:09:54;5.38;;;1.50;;
50319;SDS011;36226;53.464;9.852;2024-02-16T04:12:19;2.47;;;1.50;;
50319;SDS011;36226;53.464;9.852;2024-02-16T04:14:45;3.80;;;1.50;;
50319;SDS011;36226;53.464;9.852;2024-02-16T04:17:10;2.15;;;1.70;;
50319;SDS011;36226;53.464;9.852;2024-02-16T04:19:36;3.63;;;1.50;;
50319;SDS011;36226;53.464;9.852;2024-02-16T04:22:02;3.58;;;1.60;;
50319;SDS011;36226;53.464;9.852;2024-02-16T04:24:28;3.40;;;1.60;;
50319;SDS011;36226;53.464;9.852;2024-02-16T04:26:54;6.22;;;1.40;;
50319;SDS011;36226;53.464;9.852;2024-02-16T04:29:19;5.95;;;1.77;;
50319;SDS011;36226;53.464;9.852;2024-02-16T04:31:44;3.83;;;1.58;;
50319;SDS011;36226;53.464;9.852;2024-02-16T04:34:11;3.47;;;1.55;;
50319;SDS011;36226;53.464;9.852;2024-02-16T04:36:37;5.47;;;1.67;;
50319;SDS011;36226;53.464;9.852;2024-02-16T04:39:02;3.08;;;1.45;;
50319;SDS011;36226;53.464;9.852;2024-02-16T04:41:28;3.33;;;1.40;;
50319;SDS011;36226;53.464;9.852;2024-02-16T04:43:53;2.55;;;1.40;;
50319;SDS011;36226;53.464;9.852;2024-02-16T04:46:19;2.50;;;1.60;;
50319;SDS011;36226;53.464;9.852;2024-02-16T04:48:44;4.45;;;1.33;;
50319;SDS011;36226;53.464;9.852;2024-02-16T04:51:10;4.78;;;2.28;;
50319;SDS011;36226;53.464;9.852;2024-02-16T04:53:36;2.72;;;1.33;;
50319;SDS011;36226;53.464;9.852;2024-02-16T04:56:01;2.53;;;1.50;;
50319;SDS011;36226;53.464;9.852;2024-02-16T04:58:27;3.13;;;1.42;;
50319;SDS011;36226;53.464;9.852;2024-02-16T05:00:52;2.47;;;1.27;;
50319;SDS011;36226;53.464;9.852;2024-02-16T05:03:18;4.70;;;1.27;;
50319;SDS011;36226;53.464;9.852;2024-02-16T05:05:43;3.75;;;1.30;;
50319;SDS011;36226;53.464;9.852;2024-02-16T05:08:09;6.05;;;2.20;;
50319;SDS011;36226;53.464;9.852;2024-02-16T05:10:43;3.65;;;1.70;;
50319;SDS011;36226;53.464;9.852;2024-02-16T05:13:17;4.03;;;1.60;;
50319;SDS011;36226;53.464;9.852;2024-02-16T05:15:43;3.35;;;1.50;;
50319;SDS011;36226;53.464;9.852;2024-02-16T05:18:08;3.70;;;1.80;;
50319;SDS011;36226;53.464;9.852;2024-02-16T05:20:37;1.92;;;1.20;;
50319;SDS011;36226;53.464;9.852;2024-02-16T05:23:02;4.30;;;1.90;;
50319;SDS011;36226;53.464;9.852;2024-02-16T05:25:28;2.75;;;1.30;;
50319;SDS011;36226;53.464;9.852;2024-02-16T05:27:53;6.43;;;1.50;;
50319;SDS011;36226;53.464;9.852;2024-02-16T05:30:19;3.80;;;1.40;;
50319;SDS011;36226;53.464;9.852;2024-02-16T05:32:44;3.38;;;1.50;;
50319;SDS011;36226;53.464;9.852;2024-02-16T05:35:10;4.32;;;1.65;;
50319;SDS011;36226;53.464;9.852;2024-02-16T05:37:44;3.00;;;1.48;;
50319;SDS011;36226;53.464;9.852;2024-02-16T05:40:12;2.88;;;1.33;;
50319;SDS011;36226;53.464;9.852;2024-02-16T05:42:45;5.22;;;1.30;;
50319;SDS011;36226;53.464;9.852;2024-02-16T05:45:11;3.15;;;1.45;;
50319;SDS011;36226;53.464;9.852;2024-02-16T05:47:37;2.47;;;1.30;;
50319;SDS011;36226;53.464;9.852;2024-02-16T05:50:04;3.60;;;1.25;;
50319;SDS011;36226;53.464;9.852;2024-02-16T05:52:30;2.72;;;1.50;;
50319;SDS011;36226;53.464;9.852;2024-02-16T05:54:55;3.00;;;1.48;;
50319;SDS011;36226;53.464;9.852;2024-02-16T05:57:21;4.20;;;1.40;;
50319;SDS011;36226;53.464;9.852;2024-02-16T05:59:46;5.00;;;1.60;;
50319;SDS011;36226;53.464;9.852;2024-02-16T06:02:11;3.13;;;1.50;;
50319;SDS011;36226;53.464;9.852;2024-02-16T06:04:38;5.00;;;1.60;;
50319;SDS011;36226;53.464;9.852;2024-02-16T06:07:04;2.88;;;1.60;;
50319;SDS011;36226;53.464;9.852;2024-02-16T06:09:30;2.42;;;1.45;;
50319;SDS011;36226;53.464;9.852;2024-02-16T06:12:02;3.83;;;1.38;;
50319;SDS011;36226;53.464;9.852;2024-02-16T06:14:29;3.25;;;1.30;;
50319;SDS011;36226;53.464;9.852;2024-02-16T06:16:55;3.78;;;1.70;;
50319;SDS011;36226;53.464;9.852;2024-02-16T06:19:21;4.93;;;1.42;;
50319;SDS011;36226;53.464;9.852;2024-02-16T06:21:46;3.70;;;1.48;;
50319;SDS011;36226;53.464;9.852;2024-02-16T06:24:11;4.38;;;1.70;;
50319;SDS011;36226;53.464;9.852;2024-02-16T06:26:37;5.38;;;1.60;;
50319;SDS011;36226;53.464;9.852;2024-02-16T06:29:02;3.05;;;1.33;;
50319;SDS011;36226;53.464;9.852;2024-02-16T06:31:27;3.50;;;1.60;;
50319;SDS011;36226;53.464;9.852;2024-02-16T06:33:53;2.55;;;1.55;;
50319;SDS011;36226;53.464;9.852;2024-02-16T06:36:18;9.35;;;1.63;;
50319;SDS011;36226;53.464;9.852;2024-02-16T06:38:43;3.65;;;1.63;;
50319;SDS011;36226;53.464;9.852;2024-02-16T06:41:09;2.38;;;1.38;;
50319;SDS011;36226;53.464;9.852;2024-02-16T06:43:35;1.83;;;1.20;;
50319;SDS011;36226;53.464;9.852;2024-02-16T06:46:00;4.93;;;1.67;;
50319;SDS011;36226;53.464;9.852;2024-02-16T06:48:26;4.20;;;1.48;;
50319;SDS011;36226;53.464;9.852;2024-02-16T06:50:51;4.70;;;1.42;;
50319;SDS011;36226;53.464;9.852;2024-02-16T06:53:17;2.38;;;1.30;;
50319;SDS011;36226;53.464;9.852;2024-02-16T06:55:42;2.85;;;1.70;;
50319;SDS011;36226;53.464;9.852;2024-02-16T06:58:07;3.58;;;1.30;;
50319;SDS011;36226;53.464;9.852;2024-02-16T07:00:33;2.58;;;1.40;;
50319;SDS011;36226;53.464;9.852;2024-02-16T07:02:58;1.75;;;1.40;;
50319;SDS011;36226;53.464;9.852;2024-02-16T07:05:24;1.73;;;1.10;;
50319;SDS011;36226;53.464;9.852;2024-02-16T07:07:49;3.17;;;1.33;;
50319;SDS011;36226;53.464;9.852;2024-02-16T07:10:15;3.10;;;1.50;;
50319;SDS011;36226;53.464;9.852;2024-02-16T07:12:41;4.35;;;1.50;;
50319;SDS011;36226;53.464;9.852;2024-02-16T07:15:07;3.72;;;1.30;;
50319;SDS011;36226;53.464;9.852;2024-02-16T07:17:33;2.58;;;1.40;;
50319;SDS011;36226;53.464;9.852;2024-02-16T07:19:59;5.57;;;1.58;;
50319;SDS011;36226;53.464;9.852;2024-02-16T07:22:26;5.05;;;1.38;;
50319;SDS011;36226;53.464;9.852;2024-02-16T07:24:52;2.58;;;1.48;;
50319;SDS011;36226;53.464;9.852;2024-02-16T07:27:17;2.38;;;1.25;;
50319;SDS011;36226;53.464;9.852;2024-02-16T07:29:43;3.50;;;1.38;;
50319;SDS011;36226;53.464;9.852;2024-02-16T07:32:09;2.75;;;1.40;;
50319;SDS011;36226;53.464;9.852;2024-02-16T07:34:34;6.15;;;1.23;;
50319;SDS011;36226;53.464;9.852;2024-02-16T07:36:59;2.10;;;1.30;;
50319;SDS011;36226;53.464;9.852;2024-02-16T07:39:25;3.10;;;1.52;;
50319;SDS011;36226;53.464;9.852;2024-02-16T07:41:50;2.33;;;1.30;;
50319;SDS011;36226;53.464;9.852;2024-02-16T07:44:15;2.67;;;1.30;;
50319;SDS011;36226;53.464;9.852;2024-02-16T07:46:41;4.70;;;1.15;;
50319;SDS011;36226;53.464;9.852;2024-02-16T07:49:06;2.63;;;1.35;;
50319;SDS011;36226;53.464;9.852;2024-02-16T07:51:32;3.53;;;1.15;;
50319;SDS011;36226;53.464;9.852;2024-02-16T07:53:57;1.95;;;1.30;;
50319;SDS011;36226;53.464;9.852;2024-02-16T07:56:23;4.47;;;1.27;;
50319;SDS011;36226;53.464;9.852;2024-02-16T07:58:48;3.53;;;1.40;;
50319;SDS011;36226;53.464;9.852;2024-02-16T08:01:13;3.85;;;1.10;;
50319;SDS011;36226;53.464;9.852;2024-02-16T08:03:41;3.00;;;1.63;;
50319;SDS011;36226;53.464;9.852;2024-02-16T08:06:07;2.70;;;1.40;;
50319;SDS011;36226;53.464;9.852;2024-02-16T08:08:32;3.45;;;1.30;;
50319;SDS011;36226;53.464;9.852;2024-02-16T08:10:57;5.57;;;1.45;;
50319;SDS011;36226;53.464;9.852;2024-02-16T08:13:23;3.50;;;1.30;;
50319;SDS011;36226;53.464;9.852;2024-02-16T08:15:48;1.45;;;1.10;;
50319;SDS011;36226;53.464;9.852;2024-02-16T08:18:14;1.88;;;1.10;;
50319;SDS011;36226;53.464;9.852;2024-02-16T08:20:39;1.40;;;1.10;;
50319;SDS011;36226;53.464;9.852;2024-02-16T08:23:04;2.47;;;1.10;;
50319;SDS011;36226;53.464;9.852;2024-02-16T08:25:30;2.50;;;1.38;;
50319;SDS011;36226;53.464;9.852;2024-02-16T08:27:55;2.58;;;1.25;;
50319;SDS011;36226;53.464;9.852;2024-02-16T08:30:21;3.47;;;1.45;;
50319;SDS011;36226;53.464;9.852;2024-02-16T08:32:47;2.72;;;1.40;;
50319;SDS011;36226;53.464;9.852;2024-02-16T08:35:12;4.05;;;1.60;;
50319;SDS011;36226;53.464;9.852;2024-02-16T08:37:39;2.60;;;1.40;;
50319;SDS011;36226;53.464;9.852;2024-02-16T08:40:05;4.05;;;2.03;;
50319;SDS011;36226;53.464;9.852;2024-02-16T08:42:30;3.28;;;1.42;;
50319;SDS011;36226;53.464;9.852;2024-02-16T08:44:56;3.45;;;1.45;;
50319;SDS011;36226;53.464;9.852;2024-02-16T08:47:25;2.72;;;1.50;;
50319;SDS011;36226;53.464;9.852;2024-02-16T08:49:50;4.28;;;1.52;;
50319;SDS011;36226;53.464;9.852;2024-02-16T08:52:16;3.08;;;1.60;;
50319;SDS011;36226;53.464;9.852;2024-02-16T08:54:42;3.63;;;1.45;;
50319;SDS011;36226;53.464;9.852;2024-02-16T08:57:08;3.25;;;1.50;;
50319;SDS011;36226;53.464;9.852;2024-02-16T08:59:34;3.67;;;1.38;;
50319;SDS011;36226;53.464;9.852;2024-02-16T09:02:00;8.00;;;1.70;;
50319;SDS011;36226;53.464;9.852;2024-02-16T09:04:28;6.00;;;1.52;;
50319;SDS011;36226;53.464;9.852;2024-02-16T09:06:57;4.30;;;1.33;;
50319;SDS011;36226;53.464;9.852;2024-02-16T09:09:25;2.22;;;1.40;;
50319;SDS011;36226;53.464;9.852;2024-02-16T09:11:51;2.50;;;1.50;;
50319;SDS011;36226;53.464;9.852;2024-02-16T09:14:16;3.53;;;1.55;;
50319;SDS011;36226;53.464;9.852;2024-02-16T09:16:41;2.45;;;1.40;;
50319;SDS011;36226;53.464;9.852;2024-02-16T09:19:16;5.20;;;1.60;;
50319;SDS011;36226;53.464;9.852;2024-02-16T09:21:41;1.97;;;1.30;;
50319;SDS011;36226;53.464;9.852;2024-02-16T09:24:06;1.90;;;1.40;;
50319;SDS011;36226;53.464;9.852;2024-02-16T09:26:35;5.43;;;1.63;;
50319;SDS011;36226;53.464;9.852;2024-02-16T09:29:01;2.22;;;1.17;;
50319;SDS011;36226;53.464;9.852;2024-02-16T09:31:27;1.90;;;1.30;;
50319;SDS011;36226;53.464;9.852;2024-02-16T09:34:01;3.30;;;1.40;;
50319;SDS011;36226;53.464;9.852;2024-02-16T09:36:32;3.08;;;1.40;;
50319;SDS011;36226;53.464;9.852;2024-02-16T09:38:58;3.85;;;1.20;;
50319;SDS011;36226;53.464;9.852;2024-02-16T09:41:23;3.20;;;1.40;;
50319;SDS011;36226;53.464;9.852;2024-02-16T09:43:49;3.42;;;1.33;;
50319;SDS011;36226;53.464;9.852;2024-02-16T09:46:21;4.88;;;1.38;;
50319;SDS011;36226;53.464;9.852;2024-02-16T09:48:46;2.42;;;1.20;;
50319;SDS011;36226;53.464;9.852;2024-02-16T09:51:16;2.83;;;1.27;;
50319;SDS011;36226;53.464;9.852;2024-02-16T09:53:42;2.35;;;1.17;;
50319;SDS011;36226;53.464;9.852;2024-02-16T09:56:08;3.25;;;1.10;;
50319;SDS011;36226;53.464;9.852;2024-02-16T09:58:36;3.28;;;1.13;;
50319;SDS011;36226;53.464;9.852;2024-02-16T10:01:01;1.80;;;0.90;;
50319;SDS011;36226;53.464;9.852;2024-02-16T10:03:29;2.28;;;1.13;;
50319;SDS011;36226;53.464;9.852;2024-02-16T10:06:08;3.78;;;1.48;;
50319;SDS011;36226;53.464;9.852;2024-02-16T10:08:46;3.67;;;1.20;;
50319;SDS011;36226;53.464;9.852;2024-02-16T10:11:16;3.15;;;1.17;;
50319;SDS011;36226;53.464;9.852;2024-02-16T10:13:43;1.73;;;1.00;;
50319;SDS011;36226;53.464;9.852;2024-02-16T10:16:18;2.85;;;1.05;;
50319;SDS011;36226;53.464;9.852;2024-02-16T10:18:44;3.60;;;1.48;;
50319;SDS011;36226;53.464;9.852;2024-02-16T10:21:09;1.75;;;1.10;;
50319;SDS011;36226;53.464;9.852;2024-02-16T10:23:34;2.67;;;1.02;;
50319;SDS011;36226;53.464;9.852;2024-02-16T10:26:00;2.00;;;1.00;;
50319;SDS011;36226;53.464;9.852;2024-02-16T10:28:26;2.88;;;1.10;;
50319;SDS011;36226;53.464;9.852;2024-02-16T10:30:57;1.67;;;1.13;;
50319;SDS011;36226;53.464;9.852;2024-02-16T10:33:27;4.18;;;1.20;;
50319;SDS011;36226;53.464;9.852;2024-02-16T10:35:53;3.15;;;0.98;;
50319;SDS011;36226;53.464;9.852;2024-02-16T10:38:21;4.57;;;1.20;;
50319;SDS011;36226;53.464;9.852;2024-02-16T10:40:47;3.00;;;1.20;;
50319;SDS011;36226;53.464;9.852;2024-02-16T10:43:16;3.25;;;1.10;;
50319;SDS011;36226;53.464;9.852;2024-02-16T10:45:43;3.65;;;1.33;;
50319;SDS011;36226;53.464;9.852;2024-02-16T10:48:10;3.00;;;1.20;;
50319;SDS011;36226;53.464;9.852;2024-02-16T10:50:36;1.50;;;1.20;;
50319;SDS011;36226;53.464;9.852;2024-02-16T10:53:12;2.25;;;1.17;;
50319;SDS011;36226;53.464;9.852;2024-02-16T10:55:40;3.22;;;1.50;;
50319;SDS011;36226;53.464;9.852;2024-02-16T10:58:07;2.00;;;1.30;;
50319;SDS011;36226;53.464;9.852;2024-02-16T11:00:35;4.05;;;1.30;;
50319;SDS011;36226;53.464;9.852;2024-02-16T11:03:02;2.92;;;1.63;;
50319;SDS011;36226;53.464;9.852;2024-02-16T11:05:31;2.50;;;1.13;;
50319;SDS011;36226;53.464;9.852;2024-02-16T11:08:01;3.70;;;1.38;;
50319;SDS011;36226;53.464;9.852;2024-02-16T11:10:27;2.72;;;1.40;;
50319;SDS011;36226;53.464;9.852;2024-02-16T11:12:53;4.35;;;1.52;;
50319;SDS011;36226;53.464;9.852;2024-02-16T11:15:41;4.60;;;1.30;;
50319;SDS011;36226;53.464;9.852;2024-02-16T11:18:06;3.88;;;1.27;;
50319;SDS011;36226;53.464;9.852;2024-02-16T11:20:37;6.15;;;1.35;;
50319;SDS011;36226;53.464;9.852;2024-02-16T11:23:09;4.75;;;1.25;;
50319;SDS011;36226;53.464;9.852;2024-02-16T11:25:38;3.15;;;1.55;;
50319;SDS011;36226;53.464;9.852;2024-02-16T11:28:03;4.38;;;1.33;;
50319;SDS011;36226;53.464;9.852;2024-02-16T11:30:32;2.15;;;1.30;;
50319;SDS011;36226;53.464;9.852;2024-02-16T11:32:59;3.65;;;1.30;;
50319;SDS011;36226;53.464;9.852;2024-02-16T11:35:24;2.88;;;1.33;;
50319;SDS011;36226;53.464;9.852;2024-02-16T11:37:50;4.28;;;1.50;;
50319;SDS011;36226;53.464;9.852;2024-02-16T11:40:16;4.63;;;1.40;;
50319;SDS011;36226;53.464;9.852;2024-02-16T11:42:41;3.35;;;1.60;;
50319;SDS011;36226;53.464;9.852;2024-02-16T11:45:10;5.80;;;1.60;;
50319;SDS011;36226;53.464;9.852;2024-02-16T11:47:37;2.60;;;1.52;;
50319;SDS011;36226;53.464;9.852;2024-02-16T11:50:06;3.13;;;1.42;;
50319;SDS011;36226;53.464;9.852;2024-02-16T11:52:39;2.75;;;1.70;;
50319;SDS011;36226;53.464;9.852;2024-02-16T11:55:07;3.53;;;1.77;;
50319;SDS011;36226;53.464;9.852;2024-02-16T11:57:33;3.33;;;1.42;;
50319;SDS011;36226;53.464;9.852;2024-02-16T12:00:00;4.50;;;1.50;;
50319;SDS011;36226;53.464;9.852;2024-02-16T12:02:29;4.53;;;1.58;;
50319;SDS011;36226;53.464;9.852;2024-02-16T12:04:58;3.83;;;2.00;;
50319;SDS011;36226;53.464;9.852;2024-02-16T12:07:25;4.18;;;1.98;;
50319;SDS011;36226;53.464;9.852;2024-02-16T12:09:59;4.35;;;1.80;;
50319;SDS011;36226;53.464;9.852;2024-02-16T12:12:25;3.63;;;1.70;;
50319;SDS011;36226;53.464;9.852;2024-02-16T12:14:54;3.45;;;1.70;;
50319;SDS011;36226;53.464;9.852;2024-02-16T12:17:20;5.80;;;1.65;;
50319;SDS011;36226;53.464;9.852;2024-02-16T12:19:46;3.67;;;1.92;;
50319;SDS011;36226;53.464;9.852;2024-02-16T12:22:18;5.07;;;1.88;;
50319;SDS011;36226;53.464;9.852;2024-02-16T12:24:45;3.70;;;1.75;;
50319;SDS011;36226;53.464;9.852;2024-02-16T12:27:11;2.95;;;1.90;;
50319;SDS011;36226;53.464;9.852;2024-02-16T12:29:36;3.35;;;1.85;;
50319;SDS011;36226;53.464;9.852;2024-02-16T12:32:01;6.22;;;2.15;;
50319;SDS011;36226;53.464;9.852;2024-02-16T12:34:27;4.28;;;1.80;;
50319;SDS011;36226;53.464;9.852;2024-02-16T12:36:53;5.55;;;1.80;;
50319;SDS011;36226;53.464;9.852;2024-02-16T12:39:18;6.47;;;2.45;;
50319;SDS011;36226;53.464;9.852;2024-02-16T12:41:43;3.80;;;2.25;;
50319;SDS011;36226;53.464;9.852;2024-02-16T12:44:09;4.43;;;1.85;;
50319;SDS011;36226;53.464;9.852;2024-02-16T12:46:35;3.88;;;1.67;;
50319;SDS011;36226;53.464;9.852;2024-02-16T12:49:00;5.65;;;2.00;;
50319;SDS011;36226;53.464;9.852;2024-02-16T12:51:26;5.28;;;1.80;;
50319;SDS011;36226;53.464;9.852;2024-02-16T12:53:51;5.03;;;2.20;;
50319;SDS011;36226;53.464;9.852;2024-02-16T12:56:17;7.20;;;2.22;;
50319;SDS011;36226;53.464;9.852;2024-02-16T12:58:43;5.05;;;2.33;;
50319;SDS011;36226;53.464;9.852;2024-02-16T13:01:09;7.45;;;2.65;;
50319;SDS011;36226;53.464;9.852;2024-02-16T13:03:35;5.13;;;2.05;;
50319;SDS011;36226;53.464;9.852;2024-02-16T13:06:01;4.82;;;2.50;;
50319;SDS011;36226;53.464;9.852;2024-02-16T13:08:28;4.70;;;2.38;;
50319;SDS011;36226;53.464;9.852;2024-02-16T13:10:53;4.50;;;2.53;;
50319;SDS011;36226;53.464;9.852;2024-02-16T13:13:19;5.20;;;2.20;;
50319;SDS011;36226;53.464;9.852;2024-02-16T13:15:45;4.82;;;2.50;;
50319;SDS011;36226;53.464;9.852;2024-02-16T13:18:12;3.30;;;2.20;;
50319;SDS011;36226;53.464;9.852;2024-02-16T13:20:37;9.48;;;3.00;;
50319;SDS011;36226;53.464;9.852;2024-02-16T13:23:03;5.63;;;2.53;;
50319;SDS011;36226;53.464;9.852;2024-02-16T13:25:28;4.95;;;2.15;;
50319;SDS011;36226;53.464;9.852;2024-02-16T13:27:54;5.47;;;2.65;;
50319;SDS011;36226;53.464;9.852;2024-02-16T13:30:19;4.97;;;2.60;;
50319;SDS011;36226;53.464;9.852;2024-02-16T13:32:45;4.65;;;3.05;;
50319;SDS011;36226;53.464;9.852;2024-02-16T13:35:11;6.55;;;3.40;;
50319;SDS011;36226;53.464;9.852;2024-02-16T13:37:38;5.22;;;3.00;;
50319;SDS011;36226;53.464;9.852;2024-02-16T13:40:03;6.30;;;3.15;;
50319;SDS011;36226;53.464;9.852;2024-02-16T13:42:32;5.70;;;2.70;;
50319;SDS011;36226;53.464;9.852;2024-02-16T13:44:57;5.45;;;2.67;;
50319;SDS011;36226;53.464;9.852;2024-02-16T13:47:23;6.30;;;2.67;;
50319;SDS011;36226;53.464;9.852;2024-02-16T13:49:48;6.18;;;2.95;;
50319;SDS011;36226;53.464;9.852;2024-02-16T13:52:14;8.40;;;2.95;;
50319;SDS011;36226;53.464;9.852;2024-02-16T13:54:40;7.20;;;2.80;;
50319;SDS011;36226;53.464;9.852;2024-02-16T13:57:05;8.52;;;2.88;;
50319;SDS011;36226;53.464;9.852;2024-02-16T13:59:30;6.68;;;2.85;;
50319;SDS011;36226;53.464;9.852;2024-02-16T14:01:58;6.30;;;2.65;;
50319;SDS011;36226;53.464;9.852;2024-02-16T14:04:24;6.18;;;2.90;;
50319;SDS011;36226;53.464;9.852;2024-02-16T14:06:51;6.75;;;2.72;;
50319;SDS011;36226;53.464;9.852;2024-02-16T14:09:17;6.28;;;2.75;;
50319;SDS011;36226;53.464;9.852;2024-02-16T14:11:44;8.73;;;3.05;;
50319;SDS011;36226;53.464;9.852;2024-02-16T14:14:10;5.75;;;2.70;;
50319;SDS011;36226;53.464;9.852;2024-02-16T14:16:36;5.38;;;2.72;;
50319;SDS011;36226;53.464;9.852;2024-02-16T14:19:01;6.28;;;2.70;;
50319;SDS011;36226;53.464;9.852;2024-02-16T14:21:27;6.20;;;3.30;;
50319;SDS011;36226;53.464;9.852;2024-02-16T14:23:52;8.60;;;3.83;;
50319;SDS011;36226;53.464;9.852;2024-02-16T14:26:18;7.43;;;3.58;;
50319;SDS011;36226;53.464;9.852;2024-02-16T14:28:44;9.60;;;3.63;;
50319;SDS011;36226;53.464;9.852;2024-02-16T14:31:10;8.07;;;3.70;;
50319;SDS011;36226;53.464;9.852;2024-02-16T14:33:36;4.80;;;3.30;;
50319;SDS011;36226;53.464;9.852;2024-02-16T14:36:02;5.15;;;3.15;;
50319;SDS011;36226;53.464;9.852;2024-02-16T14:38:27;8.88;;;3.45;;
50319;SDS011;36226;53.464;9.852;2024-02-16T14:40:53;6.10;;;3.38;;
50319;SDS011;36226;53.464;9.852;2024-02-16T14:43:18;6.72;;;3.72;;